Time;durP1;ratioP1;P1;durP2;ratioP2;P2;SDS_P1;SDS_P2;PMS_P1;PMS_P2;Temp;Humidity;BMP_temperature;BMP_pressure;BME280_temperature;BME280_humidity;BME280_pressure;Samples;Min_cycle;Max_cycle;Signal;HPM_P1;HPM_P2
2023/10/16 00:02:56;;;;;;;5.40;3.10;;;;;;;19.11;81.67;100088.56;10213405;28;97218;-78
2023/10/16 00:08:05;;;;;;;5.72;3.20;;;;;;;19.01;81.88;100090.22;10212951;28;96576;-78
2023/10/16 00:13:11;;;;;;;4.35;3.15;;;;;;;19.02;81.11;100086.59;10195578;28;97395;-78
2023/10/16 00:18:58;;;;;;;;;;;;;;;;;;;;;
2023/10/16 00:24:49;;;;;;;;;;;;;;;;;;;;;
2023/10/16 00:48:38;;;;;;;;;;;;;;;18.76;83.26;100059.25;10196707;28;97448;-78
2023/10/16 01:00:31;;;;;;;6.90;3.63;;;;;;;18.84;82.50;100056.00;10050004;29;99153;-78
2023/10/16 01:05:43;;;;;;;6.78;3.95;;;;;;;18.83;82.82;100062.31;9955479;29;97002;-78
2023/10/16 01:10:56;;;;;;;5.53;3.10;;;;;;;18.88;82.77;100065.47;10152575;28;97150;-78
2023/10/16 01:16:01;;;;;;;5.40;3.20;;;;;;;18.89;82.27;100056.47;10218339;28;96684;-78
2023/10/16 01:21:08;;;;;;;4.97;2.92;;;;;;;18.96;82.64;100042.56;10217998;28;97255;-78
2023/10/16 01:26:27;;;;;;;;;;;;;;;;;;;;;
2023/10/16 01:31:36;;;;;;;4.93;3.35;;;;;;;18.88;82.25;100055.66;10217812;28;97226;-78
2023/10/16 01:36:46;;;;;;;6.22;3.42;;;;;;;18.90;82.27;100055.53;10216999;28;97146;-78
2023/10/16 01:41:52;;;;;;;4.85;2.83;;;;;;;18.92;82.58;100053.59;10216395;28;97901;-78
2023/10/16 01:47:03;;;;;;;4.90;2.58;;;;;;;19.01;82.06;100042.19;10217605;28;96997;-78
2023/10/16 01:52:12;;;;;;;5.25;2.67;;;;;;;19.04;81.45;100042.81;10217585;28;96638;-78
2023/10/16 01:57:17;;;;;;;5.20;3.13;;;;;;;19.13;81.41;100030.56;10217100;28;97284;-79
2023/10/16 02:14:12;;;;;;;4.07;2.90;;;;;;;19.20;81.00;100015.78;10049007;29;97436;-79
2023/10/16 02:19:16;;;;;;;5.75;3.30;;;;;;;18.97;82.45;100012.25;10172720;28;97915;-78
2023/10/16 02:24:19;;;;;;;6.20;3.00;;;;;;;18.98;82.15;100003.31;10206014;28;96824;-78
2023/10/16 02:29:31;;;;;;;4.78;3.08;;;;;;;18.89;82.66;99997.81;10215484;28;96661;-78
2023/10/16 02:34:41;;;;;;;4.88;3.15;;;;;;;18.98;81.99;99994.44;10214813;28;97463;-78
2023/10/16 02:39:50;;;;;;;5.10;3.22;;;;;;;18.93;81.69;99992.16;10215218;28;96636;-78
2023/10/16 02:44:56;;;;;;;6.38;3.22;;;;;;;18.99;81.49;99993.50;10214873;28;96636;-78
2023/10/16 02:49:59;;;;;;;6.57;3.22;;;;;;;18.84;82.33;99982.19;10215477;28;96685;-78
2023/10/16 02:55:06;;;;;;;7.43;3.75;;;;;;;18.76;82.80;99979.28;10215432;28;96592;-78
2023/10/16 03:00:18;;;;;;;7.18;3.92;;;;;;;18.65;82.66;99973.91;10189994;28;96854;-78
2023/10/16 03:05:24;;;;;;;7.45;3.85;;;;;;;18.63;83.65;99975.00;10174855;28;97681;-78
2023/10/16 03:10:40;;;;;;;;;;;;;;;;;;;;;
2023/10/16 03:15:47;;;;;;;4.80;3.00;;;;;;;18.60;84.27;99961.91;10197109;28;96838;-78
2023/10/16 03:21:04;;;;;;;5.65;3.53;;;;;;;18.64;82.94;99947.38;10174011;28;97053;-78
2023/10/16 03:26:14;;;;;;;5.72;3.45;;;;;;;18.59;83.79;99946.91;10173632;28;96967;-78
2023/10/16 03:31:25;;;;;;;5.95;3.40;;;;;;;18.52;84.35;99945.66;10174445;28;96959;-78
2023/10/16 03:36:31;;;;;;;6.65;3.45;;;;;;;18.48;84.44;99939.72;10174378;28;97366;-78
2023/10/16 03:41:39;;;;;;;6.35;3.63;;;;;;;18.44;84.42;99940.88;10199760;28;96804;-78
2023/10/16 03:46:47;;;;;;;4.97;3.30;;;;;;;18.43;84.75;99935.69;10213883;28;96678;-78
2023/10/16 03:51:52;;;;;;;6.35;3.55;;;;;;;18.46;84.23;99935.44;10210238;28;97654;-79
2023/10/16 03:56:55;;;;;;;7.22;3.80;;;;;;;18.47;84.08;99930.00;10174058;28;97460;-78
2023/10/16 04:02:04;;;;;;;6.95;3.92;;;;;;;18.44;84.81;99930.22;10174823;28;96929;-79
2023/10/16 04:07:13;;;;;;;7.50;3.50;;;;;;;18.48;84.72;99933.53;10206976;28;97291;-78
2023/10/16 04:12:21;;;;;;;6.22;3.28;;;;;;;18.53;84.76;99923.38;10181789;28;97549;-78
2023/10/16 04:17:36;;;;;;;5.20;3.38;;;;;;;18.59;84.15;99921.06;10171708;28;96865;-78
2023/10/16 04:22:49;;;;;;;5.07;3.17;;;;;;;18.68;83.84;99923.03;10217157;28;99019;-78
2023/10/16 04:28:18;;;;;;;5.70;3.67;;;;;;;18.62;83.71;99917.34;10231299;28;96708;-78
2023/10/16 04:33:48;;;;;;;4.57;2.85;;;;;;;18.68;83.75;99916.88;10217818;28;97679;-78
2023/10/16 04:38:55;;;;;;;7.85;4.15;;;;;;;18.69;83.46;99913.22;10219719;28;96659;-78
2023/10/16 04:49:28;;;;;;;6.85;3.85;;;;;;;18.61;83.56;99911.16;10178560;28;97556;-78
2023/10/16 04:54:58;;;;;;;5.95;3.33;;;;;;;18.59;83.42;99920.25;10179953;28;96649;-79
2023/10/16 05:00:28;;;;;;;6.55;3.35;;;;;;;18.59;83.97;99922.91;10184197;28;97692;-78
2023/10/16 05:05:55;;;;;;;;;;;;;;;;;;;;;
2023/10/16 06:14:40;;;;;;;5.20;2.97;;;;;;;18.68;82.74;99876.88;10217076;28;97325;-78
2023/10/16 06:19:46;;;;;;;6.22;2.55;;;;;;;18.78;82.40;99877.84;10216128;28;97236;-78
2023/10/16 06:24:52;;;;;;;3.92;2.65;;;;;;;18.77;82.60;99881.47;10216119;28;97313;-78
2023/10/16 06:29:57;;;;;;;4.28;2.60;;;;;;;18.87;81.97;99882.47;10216179;28;96804;-78
2023/10/16 06:35:01;;;;;;;4.53;2.70;;;;;;;18.75;82.61;99891.44;10215917;28;97941;-78
2023/10/16 06:40:16;;;;;;;3.70;2.35;;;;;;;18.82;82.40;99898.81;10215689;28;97131;-78
2023/10/16 06:45:22;;;;;;;;;;;;;;;18.72;83.19;99895.19;10185377;28;96690;-78
2023/10/16 06:50:40;;;;;;;3.42;2.42;;;;;;;18.78;82.50;99881.34;10176199;28;96628;-78
2023/10/16 06:55:46;;;;;;;4.18;2.75;;;;;;;18.75;82.49;99891.44;10174962;28;96746;-78
2023/10/16 07:00:55;;;;;;;4.85;2.15;;;;;;;18.66;83.10;99876.97;10193779;28;96722;-78
2023/10/16 07:05:59;;;;;;;3.92;2.70;;;;;;;18.67;83.25;99880.50;10213946;28;98129;-78
2023/10/16 07:11:04;;;;;;;6.57;2.97;;;;;;;18.69;83.00;99874.09;10214841;28;96778;-78
2023/10/16 07:16:09;;;;;;;3.88;2.28;;;;;;;18.67;83.05;99869.84;10208306;28;96914;-78
2023/10/16 07:21:17;;;;;;;;;;;;;;;18.68;83.66;99882.22;10175260;28;96985;-78
2023/10/16 07:26:25;;;;;;;3.97;2.45;;;;;;;18.66;83.03;99884.97;10174775;28;97061;-78
2023/10/16 07:31:28;;;;;;;4.00;2.50;;;;;;;18.72;83.05;99884.50;10174443;28;96627;-78
2023/10/16 07:36:32;;;;;;;3.53;2.60;;;;;;;18.76;82.59;99877.97;10175336;28;96992;-78
2023/10/16 07:41:37;;;;;;;4.93;2.93;;;;;;;18.74;82.53;99889.72;10206085;28;97204;-78
2023/10/16 07:46:40;;;;;;;;;;;;;;;18.75;82.84;99884.25;10215227;28;97379;-78
2023/10/16 07:51:56;;;;;;;;;;;;;;;;;;;;;
2023/10/16 07:57:03;;;;;;;6.72;3.65;;;;;;;18.85;81.88;99874.56;10171959;28;97304;-78
2023/10/16 08:02:17;;;;;;;4.85;3.15;;;;;;;18.90;81.93;99868.88;10180396;28;96773;-78
2023/10/16 08:07:46;;;;;;;5.68;3.10;;;;;;;18.95;81.96;99867.56;10203734;28;96764;-78
2023/10/16 08:12:51;;;;;;;5.07;3.03;;;;;;;19.07;81.70;99861.22;10173912;28;97070;-78
2023/10/16 08:17:54;;;;;;;;;;;;;;;19.05;81.80;99870.31;10173477;28;97015;-78
2023/10/16 08:23:05;;;;;;;9.07;4.10;;;;;;;19.02;82.04;99859.91;10173022;28;96698;-78
2023/10/16 08:28:21;;;;;;;9.80;5.38;;;;;;;19.10;81.42;99862.78;10174132;28;96876;-78
2023/10/16 08:33:30;;;;;;;5.53;3.30;;;;;;;19.15;81.35;99860.59;10172625;28;96719;-78
2023/10/16 08:38:36;;;;;;;4.93;2.90;;;;;;;19.23;81.24;99864.34;10198088;28;97195;-78
2023/10/16 08:43:53;;;;;;;8.60;3.90;;;;;;;19.27;81.35;99856.94;10185028;28;96690;-78
2023/10/16 08:49:00;;;;;;;6.55;3.75;;;;;;;19.23;81.67;99859.00;10172247;28;96618;-78
2023/10/16 08:54:26;;;;;;;5.38;3.30;;;;;;;19.30;81.17;99867.38;10172018;28;96970;-78
2023/10/16 08:59:29;;;;;;;4.65;2.60;;;;;;;19.36;80.65;99852.66;10188573;28;96814;-78
2023/10/16 09:04:34;;;;;;;5.97;2.78;;;;;;;19.26;81.20;99856.09;10211628;28;96810;-78
2023/10/16 09:09:48;;;;;;;4.47;2.92;;;;;;;19.33;81.27;99863.59;10212011;28;96663;-78
2023/10/16 09:14:53;;;;;;;4.88;2.78;;;;;;;19.36;80.73;99858.84;10210758;28;97654;-78
2023/10/16 09:19:58;;;;;;;3.72;2.55;;;;;;;19.36;80.72;99833.97;10218367;28;97113;-78
2023/10/16 09:25:09;;;;;;;5.88;2.90;;;;;;;19.44;80.56;99829.75;10218429;28;96675;-78
2023/10/16 09:30:20;;;;;;;3.22;2.50;;;;;;;19.49;80.31;99824.03;10218426;28;97376;-78
2023/10/16 09:35:33;;;;;;;4.82;2.72;;;;;;;19.49;80.39;99826.72;10216406;28;97036;-78
2023/10/16 09:40:38;;;;;;;5.35;2.97;;;;;;;19.53;80.10;99820.97;10218295;28;97390;-78
2023/10/16 09:46:05;;;;;;;;;;;;;;;;;;;;;
2023/10/16 09:51:12;;;;;;;7.13;3.80;;;;;;;19.76;79.38;99809.25;10216484;28;97509;-78
2023/10/16 09:56:23;;;;;;;6.88;4.82;;;;;;;19.82;79.19;99807.88;10217591;28;97311;-78
2023/10/16 10:01:30;;;;;;;3.85;2.85;;;;;;;19.90;79.00;99798.25;10217011;28;96797;-78
2023/10/16 10:06:35;;;;;;;4.72;3.33;;;;;;;19.94;78.90;99793.47;10207568;28;97191;-78
2023/10/16 10:11:44;;;;;;;5.50;2.83;;;;;;;19.81;79.80;99787.47;10177640;28;96750;-78
2023/10/16 10:16:56;;;;;;;18.25;8.35;;;;;;;19.90;79.88;99776.88;10176562;28;97253;-78
2023/10/16 10:22:08;;;;;;;7.50;4.43;;;;;;;19.82;79.95;99787.34;10176361;28;96633;-78
2023/10/16 10:27:17;;;;;;;10.68;5.43;;;;;;;19.88;80.49;99772.63;10175939;28;96797;-78
2023/10/16 10:32:32;;;;;;;7.85;4.45;;;;;;;19.92;79.87;99766.91;10175429;28;96669;-78
2023/10/16 10:37:47;;;;;;;8.75;5.15;;;;;;;20.03;79.71;99764.16;10216124;28;96640;-78
2023/10/16 10:42:55;;;;;;;12.85;6.72;;;;;;;20.27;79.34;99769.22;10187441;28;97577;-78
2023/10/16 10:48:10;;;;;;;8.40;5.53;;;;;;;20.32;78.94;99775.84;10189970;28;96766;-78
2023/10/16 10:53:17;;;;;;;8.40;4.68;;;;;;;20.26;79.54;99771.03;10215543;28;96701;-78
2023/10/16 10:58:23;;;;;;;7.75;4.28;;;;;;;20.44;79.04;99757.06;10199365;28;96601;-78
2023/10/16 11:03:34;;;;;;;6.82;4.00;;;;;;;20.55;78.92;99748.97;10193503;28;97168;-78
2023/10/16 11:08:39;;;;;;;5.80;3.47;;;;;;;20.52;78.78;99754.56;10215170;28;98876;-78
2023/10/16 11:13:47;;;;;;;16.08;9.93;;;;;;;20.42;79.41;99757.22;10211966;28;97446;-78
2023/10/16 11:19:05;;;;;;;8.98;6.00;;;;;;;20.60;78.93;99758.25;10173586;28;96697;-78
2023/10/16 11:24:09;;;;;;;8.40;4.70;;;;;;;20.52;79.12;99744.72;10174528;28;96747;-78
2023/10/16 11:29:13;;;;;;;18.33;9.13;;;;;;;20.64;78.62;99732.09;10174959;28;97154;-77
2023/10/16 11:34:24;;;;;;;30.02;17.67;;;;;;;20.58;78.61;99722.81;10175674;28;96956;-77
2023/10/16 11:39:28;;;;;;;56.67;28.27;;;;;;;20.65;78.37;99705.22;10173189;28;96684;-78
2023/10/16 11:44:33;;;;;;;21.80;11.52;;;;;;;20.75;78.22;99698.06;10173053;28;97029;-77
2023/10/16 11:49:37;;;;;;;8.30;4.95;;;;;;;20.80;77.71;99698.50;10195362;28;97022;-78
2023/10/16 11:54:42;;;;;;;24.38;12.48;;;;;;;20.88;77.75;99690.63;10174299;28;96729;-78
2023/10/16 11:59:51;;;;;;;15.07;8.15;;;;;;;20.99;77.33;99686.97;10172699;28;96704;-78
2023/10/16 12:04:58;;;;;;;21.23;10.55;;;;;;;21.05;76.18;99673.88;10198241;28;97431;-78
2023/10/16 12:10:05;;;;;;;16.25;9.23;;;;;;;21.28;75.36;99667.28;10172706;28;98124;-78
2023/10/16 12:15:10;;;;;;;54.65;26.70;;;;;;;21.38;75.53;99645.88;10173045;28;96630;-78
2023/10/16 12:20:16;;;;;;;9.45;5.60;;;;;;;21.46;75.06;99635.28;10173146;28;96779;-78
2023/10/16 12:25:21;;;;;;;5.05;3.20;;;;;;;21.35;75.56;99624.72;10173318;28;96774;-78
2023/10/16 12:30:27;;;;;;;5.90;2.67;;;;;;;21.43;74.59;99619.50;10180907;28;96652;-78
2023/10/16 12:35:34;;;;;;;10.82;4.70;;;;;;;21.43;74.95;99611.47;10212689;28;97372;-78
2023/10/16 12:40:38;;;;;;;14.02;6.38;;;;;;;21.58;74.31;99601.13;10199109;28;96655;-78
2023/10/16 12:45:42;;;;;;;17.40;8.18;;;;;;;21.54;74.60;99595.22;10212829;28;96868;-78
2023/10/16 12:50:48;;;;;;;51.30;22.97;;;;;;;21.45;74.74;99582.72;10212164;28;97296;-78
2023/10/16 12:56:12;;;;;;;;;;;;;;;21.30;76.43;99582.34;10212397;28;97229;-77
2023/10/16 13:01:15;;;;;;;13.82;7.55;;;;;;;21.17;76.53;99575.63;10178524;28;97007;-77
2023/10/16 13:06:21;;;;;;;23.48;11.68;;;;;;;21.06;77.35;99573.91;10218598;28;96656;-77
2023/10/16 13:11:25;;;;;;;33.63;16.58;;;;;;;21.06;77.26;99551.66;10218157;28;96685;-77
2023/10/16 13:16:30;;;;;;;73.43;32.03;;;;;;;21.06;78.35;99541.81;10184955;28;96685;-77
2023/10/16 13:21:35;;;;;;;15.30;7.75;;;;;;;21.31;78.01;99529.66;10178080;28;96792;-77
2023/10/16 13:26:39;;;;;;;171.35;88.60;;;;;;;21.24;78.76;99523.22;10178559;28;96702;-78
2023/10/16 13:31:45;;;;;;;64.43;31.57;;;;;;;21.38;77.67;99520.88;10189314;28;97145;-77
2023/10/16 13:37:00;;;;;;;60.40;32.83;;;;;;;21.31;77.92;99510.94;10177892;28;96950;-78
2023/10/16 13:42:08;;;;;;;85.60;40.60;;;;;;;21.31;77.67;99509.06;10209492;28;97910;-78
2023/10/16 13:47:13;;;;;;;13.48;7.68;;;;;;;21.28;77.67;99503.16;10210440;28;96697;-77
2023/10/16 13:52:18;;;;;;;18.50;9.85;;;;;;;21.65;76.31;99504.00;10176470;28;96792;-78
2023/10/16 13:57:22;;;;;;;20.40;10.68;;;;;;;21.94;75.56;99495.81;10178243;28;96984;-78
2023/10/16 14:02:25;;;;;;;14.30;7.70;;;;;;;21.78;75.52;99488.41;10185496;28;96794;-78
2023/10/16 14:07:31;;;;;;;47.38;22.65;;;;;;;21.86;75.67;99487.69;10184006;28;97021;-78
2023/10/16 14:12:37;;;;;;;16.58;9.30;;;;;;;22.19;74.56;99485.25;10176925;28;96986;-78
2023/10/16 14:17:43;;;;;;;14.40;7.13;;;;;;;22.42;73.86;99482.91;10176652;28;97291;-78
2023/10/16 14:22:52;;;;;;;52.05;26.20;;;;;;;22.84;71.64;99448.25;10176871;28;96766;-78
2023/10/16 14:27:55;;;;;;;85.18;42.30;;;;;;;22.59;72.24;99458.78;10192217;28;96664;-78
2023/10/16 14:33:00;;;;;;;33.20;16.17;;;;;;;22.36;73.03;99430.78;10224649;23;97258;-78
2023/10/16 14:38:16;;;;;;;25.43;12.23;;;;;;;22.07;73.73;99437.38;10185772;28;97422;-78
2023/10/16 14:43:26;;;;;;;21.90;10.77;;;;;;;21.92;73.91;99422.78;10175065;28;96652;-78
2023/10/16 14:48:32;;;;;;;12.03;5.57;;;;;;;21.77;74.04;99416.25;10175721;28;97029;-77
2023/10/16 14:53:39;;;;;;;13.00;6.78;;;;;;;21.54;75.15;99415.03;10200268;28;96985;-78
2023/10/16 14:58:57;;;;;;;19.58;8.93;;;;;;;21.55;74.75;99422.91;10214228;28;97206;-78
2023/10/16 15:04:08;;;;;;;5.50;3.05;;;;;;;21.58;73.96;99417.25;10214323;28;97345;-78
2023/10/16 15:09:18;;;;;;;4.80;3.08;;;;;;;21.65;73.29;99414.78;10215191;28;96704;-78
2023/10/16 15:14:31;;;;;;;4.68;2.95;;;;;;;21.58;73.71;99419.91;10214372;28;96971;-78
2023/10/16 15:19:38;;;;;;;6.07;3.33;;;;;;;21.63;73.83;99412.28;10216118;28;96918;-78
2023/10/16 15:24:48;;;;;;;46.00;18.70;;;;;;;21.80;73.56;99415.94;10214667;28;96945;-78
2023/10/16 15:29:59;;;;;;;39.58;19.45;;;;;;;21.85;73.71;99417.19;10191869;28;97423;-78
2023/10/16 15:35:05;;;;;;;10.40;5.68;;;;;;;22.01;72.90;99398.63;10172431;28;96900;-78
2023/10/16 15:40:17;;;;;;;5.68;3.08;;;;;;;22.08;71.98;99417.63;10174087;28;96749;-78
2023/10/16 15:45:20;;;;;;;4.50;2.65;;;;;;;22.08;72.12;99404.22;10210731;28;97341;-78
2023/10/16 15:50:27;;;;;;;6.07;2.80;;;;;;;22.11;72.46;99404.75;10174047;28;97129;-78
2023/10/16 15:55:40;;;;;;;5.75;3.00;;;;;;;22.03;72.28;99396.66;10173784;28;96700;-78
2023/10/16 16:00:50;;;;;;;3.47;2.05;;;;;;;21.95;72.37;99376.94;10173505;28;97683;-78
2023/10/16 16:06:18;;;;;;;3.15;1.90;;;;;;;21.92;72.26;99379.91;10173468;28;97142;-78
2023/10/16 16:11:44;;;;;;;4.93;2.38;;;;;;;21.95;72.27;99369.72;10174012;28;96994;-78
2023/10/16 16:17:01;;;;;;;7.72;3.15;;;;;;;21.92;72.11;99363.84;10172693;28;97197;-78
2023/10/16 16:22:15;;;;;;;5.32;2.08;;;;;;;21.94;71.65;99365.38;10173532;28;96565;-78
2023/10/16 16:27:23;;;;;;;4.32;2.30;;;;;;;21.91;71.65;99360.34;10189111;28;97256;-78
2023/10/16 16:32:30;;;;;;;4.05;2.60;;;;;;;21.75;72.37;99351.28;10172874;28;96760;-78
2023/10/16 16:37:55;;;;;;;3.38;2.17;;;;;;;21.73;72.38;99337.25;10172890;28;96652;-78
2023/10/16 16:43:14;;;;;;;3.78;2.00;;;;;;;21.70;72.21;99327.66;10172699;28;96856;-78
2023/10/16 16:48:30;;;;;;;4.07;2.25;;;;;;;21.70;72.53;99327.66;10172158;28;96906;-78
2023/10/16 16:53:41;;;;;;;6.13;2.97;;;;;;;21.69;72.40;99317.09;10172639;28;96625;-78
2023/10/16 16:58:49;;;;;;;7.28;3.97;;;;;;;21.67;72.55;99309.22;10172053;28;97105;-78
2023/10/16 17:03:58;;;;;;;6.80;3.53;;;;;;;21.78;71.76;99287.56;10172712;28;97117;-78
2023/10/16 17:09:07;;;;;;;7.30;3.88;;;;;;;21.92;71.14;99299.53;10171894;28;96544;-78
2023/10/16 17:14:21;;;;;;;24.98;11.30;;;;;;;21.90;71.00;99290.84;10172243;28;97130;-78
2023/10/16 17:19:25;;;;;;;16.15;6.70;;;;;;;21.97;70.41;99281.19;10170569;28;97706;-78
2023/10/16 17:24:28;;;;;;;9.73;4.38;;;;;;;21.98;70.02;99275.72;10180329;28;96834;-78
2023/10/16 17:30:00;;;;;;;3.30;1.73;;;;;;;22.09;69.46;99270.06;10191881;28;97147;-78
2023/10/16 17:35:39;;;;;;;3.07;1.30;;;;;;;22.16;68.47;99268.44;10170623;28;96849;-78
2023/10/16 17:40:49;;;;;;;3.08;1.27;;;;;;;22.31;68.21;99269.56;10175035;28;97347;-78
2023/10/16 17:46:02;;;;;;;2.92;1.60;;;;;;;22.31;68.19;99271.41;10178153;28;96625;-78
2023/10/16 17:51:22;;;;;;;3.85;1.00;;;;;;;22.33;68.11;99259.50;10177508;28;96819;-78
2023/10/16 17:56:53;;;;;;;7.25;1.23;;;;;;;22.39;67.56;99274.97;10177861;28;96737;-78
2023/10/16 18:02:13;;;;;;;3.30;1.10;;;;;;;22.47;67.23;99272.31;10177692;28;96829;-78
2023/10/16 18:07:35;;;;;;;3.83;1.38;;;;;;;22.46;67.55;99284.06;10177052;28;96738;-78
2023/10/16 18:12:40;;;;;;;4.50;1.30;;;;;;;22.48;67.16;99290.13;10175908;28;97085;-78
2023/10/16 18:17:55;;;;;;;4.25;2.10;;;;;;;22.51;66.61;99296.97;10176467;28;96701;-78
2023/10/16 18:23:03;;;;;;;2.58;1.58;;;;;;;22.54;66.18;99294.81;10191869;28;97306;-78
2023/10/16 18:28:28;;;;;;;1.70;0.82;;;;;;;22.60;66.00;99293.34;10206732;28;97391;-78
2023/10/16 18:34:18;;;;;;;3.10;1.05;;;;;;;22.60;64.98;99272.75;10175611;28;96769;-78
2023/10/16 18:39:47;;;;;;;1.65;1.00;;;;;;;22.72;65.04;99275.13;10176287;28;97208;-79
2023/10/16 18:45:29;;;;;;;2.60;0.98;;;;;;;22.81;64.75;99268.84;10208784;28;96712;-78
2023/10/16 18:57:09;;;;;;;2.08;0.75;;;;;;;22.81;64.67;99253.59;10093337;28;96889;-78
2023/10/16 19:02:48;;;;;;;2.67;1.23;;;;;;;22.70;64.87;99245.78;10175897;28;97492;-78
2023/10/16 19:08:41;;;;;;;2.83;1.42;;;;;;;22.45;66.35;99242.16;10173865;28;96817;-78
2023/10/16 19:19:58;;;;;;;1.60;0.68;;;;;;;22.40;66.67;99228.38;10200478;28;96612;-78
2023/10/16 19:25:27;;;;;;;1.10;0.68;;;;;;;22.49;65.80;99208.66;10215051;28;96786;-78
2023/10/16 19:30:55;;;;;;;1.10;0.70;;;;;;;22.59;65.64;99212.03;10041594;29;97021;-79
2023/10/16 19:35:58;;;;;;;1.73;0.88;;;;;;;22.45;66.10;99212.66;10202896;28;97329;-78
2023/10/16 19:41:04;;;;;;;1.42;0.88;;;;;;;22.37;66.69;99212.63;10214035;28;96811;-78
2023/10/16 19:46:09;;;;;;;1.95;0.80;;;;;;;22.37;66.63;99209.94;10191918;28;96770;-78
2023/10/16 19:51:16;;;;;;;1.17;0.60;;;;;;;22.48;66.05;99223.09;10174126;28;96926;-78
2023/10/16 19:56:26;;;;;;;1.77;0.88;;;;;;;22.41;66.52;99219.34;10173834;28;96717;-78
2023/10/16 20:01:34;;;;;;;1.73;0.68;;;;;;;22.38;66.32;99203.59;10172528;28;97208;-78
2023/10/16 20:06:40;;;;;;;2.50;0.90;;;;;;;22.42;66.61;99199.56;10173429;28;96832;-78
2023/10/16 20:11:45;;;;;;;1.52;0.77;;;;;;;22.31;66.84;99183.78;10173021;28;96945;-78
2023/10/16 20:16:50;;;;;;;2.35;0.80;;;;;;;22.26;67.20;99177.22;10192809;28;96880;-78
2023/10/16 20:22:12;;;;;;;1.40;0.60;;;;;;;22.36;66.65;99169.91;10174456;28;96719;-78
2023/10/16 20:27:21;;;;;;;2.50;0.80;;;;;;;22.43;66.13;99178.97;10172797;28;96778;-78
2023/10/16 20:32:26;;;;;;;1.10;0.55;;;;;;;22.42;66.06;99183.50;10172977;28;96801;-78
2023/10/16 20:37:37;;;;;;;1.58;0.65;;;;;;;22.48;65.87;99176.66;10173872;28;96817;-78
2023/10/16 20:42:48;;;;;;;0.98;0.70;;;;;;;22.35;66.36;99169.06;10172514;28;96854;-78
2023/10/16 20:47:55;;;;;;;1.90;1.05;;;;;;;22.33;66.51;99165.69;10172591;28;96696;-78
2023/10/16 20:53:01;;;;;;;2.33;0.77;;;;;;;22.55;65.06;99158.91;10172141;28;97051;-78
2023/10/16 20:58:09;;;;;;;0.68;0.32;;;;;;;22.69;64.67;99155.59;10172365;28;97886;-78
2023/10/16 21:03:24;;;;;;;;;;;;;;;;;;;;;
2023/10/16 21:09:10;;;;;;;1.60;0.60;;;;;;;22.85;63.78;99142.28;10167083;28;96907;-78
2023/10/16 21:21:03;;;;;;;1.60;0.85;;;;;;;22.91;63.25;99127.34;9898250;29;97049;-78
2023/10/16 21:26:13;;;;;;;2.72;0.65;;;;;;;23.00;62.68;99140.59;10030526;28;97037;-78
2023/10/16 21:31:16;;;;;;;4.32;1.20;;;;;;;23.35;61.15;99121.50;10179351;28;97483;-78
2023/10/16 21:36:43;;;;;;;;;;;;;;;;;;;;;
2023/10/16 21:41:48;;;;;;;0.95;0.38;;;;;;;23.22;61.92;99128.38;10172457;28;96699;-78
2023/10/16 21:46:55;;;;;;;1.73;1.08;;;;;;;23.27;61.68;99131.38;10180243;28;96660;-78
2023/10/16 21:52:01;;;;;;;2.67;0.60;;;;;;;23.17;62.13;99126.19;10177515;28;97357;-78
2023/10/16 21:57:44;;;;;;;3.40;0.68;;;;;;;23.46;60.65;99117.59;10177686;28;97497;-78
2023/10/16 22:03:27;;;;;;;3.50;0.93;;;;;;;23.30;61.32;99123.00;10178059;28;97611;-78
2023/10/16 22:09:45;;;;;;;;;;;;;;;;;;;;;
2023/10/16 22:14:57;;;;;;;1.05;0.60;;;;;;;23.35;61.21;99134.09;9937598;29;96987;-78
2023/10/16 22:20:08;;;;;;;2.13;0.70;;;;;;;23.44;60.79;99108.91;10153903;28;97395;-78
2023/10/16 22:25:13;;;;;;;3.97;1.05;;;;;;;23.49;60.93;99125.34;10176701;28;96697;-78
2023/10/16 22:30:22;;;;;;;0.98;0.65;;;;;;;23.55;60.49;99098.69;10176378;28;96900;-78
2023/10/16 22:35:25;;;;;;;1.33;0.82;;;;;;;23.55;60.06;99090.63;10176520;28;97531;-78
2023/10/16 22:40:30;;;;;;;5.10;1.10;;;;;;;23.58;59.88;99076.84;10175598;28;96695;-78
2023/10/16 22:45:35;;;;;;;1.85;0.82;;;;;;;23.56;59.75;99068.13;10176048;28;97048;-78
2023/10/16 22:50:44;;;;;;;1.48;0.60;;;;;;;23.52;60.04;99080.19;10176338;28;97550;-78
2023/10/16 22:55:53;;;;;;;2.22;1.00;;;;;;;23.63;59.35;99087.91;10175255;28;97007;-78
2023/10/16 23:01:00;;;;;;;2.03;1.20;;;;;;;23.58;59.09;99060.72;10175356;28;96611;-78
2023/10/16 23:06:06;;;;;;;3.72;1.10;;;;;;;23.60;58.95;99034.53;10175094;28;97441;-78
2023/10/16 23:11:17;;;;;;;;;;;;;;;23.66;58.57;99043.75;10176332;28;97607;-78
2023/10/16 23:16:23;;;;;;;3.22;1.00;;;;;;;23.53;59.31;99046.94;10214610;28;96761;-78
2023/10/16 23:21:43;;;;;;;2.47;0.80;;;;;;;23.55;59.35;99028.00;10214617;28;96674;-78
2023/10/16 23:26:49;;;;;;;2.30;0.90;;;;;;;23.52;59.55;99052.50;10194917;28;96729;-78
2023/10/16 23:32:07;;;;;;;;;;;;;;;;;;;;;
2023/10/16 23:38:05;;;;;;;;;;;;;;;;;;;;;
2023/10/16 23:49:50;;;;;;;2.95;0.90;;;;;;;23.53;59.30;99012.03;10171393;28;96911;-78
